Flight Track Log - Related Links

Times and Time Zones

All times are in EDT time to prevent confusion due to time zone crossing. See the SWA3028 flight status page for this flight to view local times or setup timezone preferences in your user account.

Time Position Orientation Groundspeed Altitude Reporting Facility
EDT Latitude Longitude Course Direction KTS MPH feet Rate Location/Type
Mon 06:11:19 AM 33.6500 -84.4000 73° East 160 184 2,200  Level Atlanta TRACON
Mon 06:12:19 AM 33.6667 -84.3333 73° East 242 278 3,900 2,421 Climbing Atlanta TRACON
Mon 06:13:13 AM 33.7167 -84.2667 48° Northeast 285 328 6,800 3,235 Climbing Atlanta TRACON
Mon 06:15:43 AM 33.8856 -84.3692 333° Northwest 307 353 14,900 3,143 Climbing Atlanta Center
Mon 06:16:43 AM 33.9814 -84.4219 335° Northwest 327 376 17,800 3,100 Climbing Atlanta Center
Mon 06:17:43 AM 34.0794 -84.4778 335° Northwest 349 402 21,100 3,250 Climbing Atlanta Center
Mon 06:18:43 AM 34.1897 -84.5411 335° Northwest 390 449 24,300 2,650 Climbing Atlanta Center
Mon 06:19:43 AM 34.2961 -84.5969 337° Northwest 402 463 26,400 2,050 Climbing Atlanta Center
Mon 06:20:43 AM 34.4147 -84.6281 348° North 419 482 28,400 1,950 Climbing Atlanta Center
Mon 06:21:43 AM 34.5378 -84.6567 349° North 440 506 30,300 1,700 Climbing Atlanta Center
Mon 06:22:43 AM 34.6525 -84.6853 348° North 450 518 31,800 2,000 Climbing Atlanta Center
Mon 06:23:43 AM 34.7733 -84.7164 348° North 450 518 34,300 2,250 Climbing Atlanta Center
Mon 06:24:43 AM 34.8942 -84.7478 348° North 450 518 36,300 1,650 Climbing Atlanta Center
Mon 06:25:43 AM 35.0172 -84.7767 349° North 450 518 37,600 1,350 Climbing Atlanta Center
Mon 06:26:43 AM 35.1400 -84.8083 348° North 450 518 39,000 1,200 Climbing Atlanta Center
Mon 06:27:43 AM 35.2589 -84.8375 349° North 450 518 40,000 500 Climbing Atlanta Center
Mon 06:28:43 AM 35.3775 -84.8692 348° North 445 512 40,000  Level Atlanta Center
Mon 06:29:43 AM 35.4961 -84.8983 349° North 440 506 40,000  Level Atlanta Center
Mon 06:30:43 AM 35.6169 -84.9278 349° North 435 501 40,000  Level Atlanta Center
Mon 06:32:34 AM 35.8356 -84.9828 348° North 436 502 40,000  Level Indianapolis Center
Mon 06:33:34 AM 35.9547 -85.0131 348° North 435 501 40,000  Level Indianapolis Center
Mon 06:34:35 AM 36.0772 -85.0447 348° North 428 493 40,000  Level Indianapolis Center
Mon 06:35:36 AM 36.1953 -85.0708 350° North 430 495 40,000  Level Indianapolis Center
Mon 06:36:36 AM 36.3139 -85.0956 350° North 431 496 40,000 -99 Level Indianapolis Center
Mon 06:37:37 AM 36.4314 -85.1211 350° North 427 491 39,800 -443 Descending Indianapolis Center
Mon 06:38:38 AM 36.5517 -85.1472 350° North 435 501 39,100 -397 Descending Indianapolis Center
Mon 06:39:38 AM 36.6719 -85.1747 350° North 438 504 39,000 -50 Descending Indianapolis Center
Mon 06:40:39 AM 36.7925 -85.2000 350° North 439 505 39,000  Level Indianapolis Center
Mon 06:41:40 AM 36.9117 -85.2253 350° North 436 502 39,000  Level Indianapolis Center
Mon 06:42:40 AM 37.0289 -85.2525 349° North 430 495 39,000  Level Indianapolis Center
Mon 06:43:41 AM 37.1469 -85.2781 350° North 429 494 39,000  Level Indianapolis Center
Mon 06:44:42 AM 37.2833 -85.3072 350° North 425 489 39,000  Level Indianapolis Center
Mon 06:45:42 AM 37.3994 -85.3342 350° North 424 488 39,000  Level Indianapolis Center
Mon 06:46:43 AM 37.5164 -85.3586 351° North 423 487 39,000  Level Indianapolis Center
Mon 06:47:44 AM 37.6336 -85.3861 349° North 424 488 39,000  Level Indianapolis Center
Mon 06:48:45 AM 37.7483 -85.4111 350° North 419 482 39,000  Level Indianapolis Center
Mon 06:49:45 AM 37.8472 -85.4331 350° North 423 487 39,000  Level Indianapolis Center
Mon 06:50:46 AM 37.9628 -85.4581 350° North 418 481 39,000  Level Indianapolis Center
Mon 06:51:47 AM 38.1003 -85.4903 350° North 417 480 39,000  Level Indianapolis Center
Mon 06:52:48 AM 38.2153 -85.5133 351° North 416 479 39,000  Level Indianapolis Center
Mon 06:53:49 AM 38.3269 -85.5408 349° North 410 472 39,000  Level Indianapolis Center
Mon 06:54:49 AM 38.4403 -85.5664 350° North 412 474 39,000  Level Indianapolis Center
Mon 06:55:50 AM 38.5542 -85.5928 350° North 415 478 39,000  Level Indianapolis Center
Mon 06:56:51 AM 38.6717 -85.6192 350° North 417 480 39,000  Level Indianapolis Center
Mon 06:57:52 AM 38.7869 -85.6464 350° North 418 481 39,000 -49 Level Indianapolis Center
Mon 06:58:53 AM 38.9003 -85.6725 350° North 415 478 38,900 -541 Descending Indianapolis Center
Mon 06:59:54 AM 39.0142 -85.6992 350° North 413 475 37,900 -984 Descending Indianapolis Center
Mon 07:00:55 AM 39.1258 -85.7247 350° North 407 468 36,900 -1,426 Descending Indianapolis Center
Mon 07:01:56 AM 39.2372 -85.7514 349° North 406 467 35,000 -934 Descending Indianapolis Center
Mon 07:02:57 AM 39.3472 -85.7769 350° North 403 464 35,000  Level Indianapolis Center
Mon 07:03:58 AM 39.4600 -85.8028 350° North 407 468 35,000 -148 Level Indianapolis Center
Mon 07:04:59 AM 39.5728 -85.8292 350° North 411 473 34,700 -1,672 Descending Indianapolis Center
Mon 07:06:00 AM 39.6844 -85.8553 350° North 409 471 31,600 -2,777 Descending Indianapolis Center
Mon 07:07:00 AM 39.7964 -85.8819 350° North 408 470 29,100 -2,410 Descending Indianapolis Center
Mon 07:08:02 AM 39.9053 -85.9072 350° North 400 460 26,700 -2,439 Descending Indianapolis Center
Mon 07:09:03 AM 40.0294 -85.9378 349° North 390 449 24,100 -1,339 Descending Indianapolis Center
Mon 07:10:03 AM 40.1333 -85.9628 350° North 382 440 24,000 -238 Descending Indianapolis Center
Mon 07:11:09 AM 40.2392 -85.9875 350° North 386 444 23,600 -661 Descending Chicago Center
Mon 07:12:10 AM 40.3447 -86.0119 350° North 384 442 22,600 -984 Descending Chicago Center
Mon 07:13:11 AM 40.4481 -86.0378 349° North 379 436 21,600 -984 Descending Chicago Center
Mon 07:14:12 AM 40.5506 -86.0589 351° North 371 427 20,600 -984 Descending Chicago Center
Mon 07:15:13 AM 40.6528 -86.0553 North 367 422 19,600 -1,033 Descending Chicago Center
Mon 07:16:14 AM 40.7589 -86.0522 North 362 417 18,500 -1,033 Descending Chicago Center
Mon 07:17:15 AM 40.8597 -86.0503 North 362 417 17,500 -984 Descending Chicago Center
Mon 07:18:16 AM 40.9553 -86.0714 351° North 359 413 16,500 -1,131 Descending Chicago Center
Mon 07:19:17 AM 40.9928 -86.1850 294° West 342 394 15,200 -1,672 Descending Chicago Center
Mon 07:20:18 AM 41.0194 -86.3033 287° West 337 388 13,100 -2,016 Descending Chicago Center
Mon 07:21:19 AM 41.0464 -86.4172 287° West 327 376 11,100 -1,328 Descending Chicago Center
Mon 07:22:20 AM 41.0989 -86.5106 307° West 315 362 10,400 -541 Descending Chicago Center
Mon 07:23:21 AM 41.1569 -86.5986 311° West 316 364 10,000 -197 Descending Chicago Center
Mon 07:24:22 AM 41.2250 -86.7033 311° West 313 360 10,000  Level Chicago Center
Mon 07:25:23 AM 41.2819 -86.7953 310° West 310 357 10,000  Level Chicago Center
Mon 07:26:24 AM 41.3372 -86.8803 311° West 307 353 10,000 -98 Level Chicago Center
Mon 07:27:26 AM 41.3919 -86.9647 311° West 305 351 9,800 -829 Descending Chicago Center
Mon 07:28:27 AM 41.4411 -87.0408 311° West 278 320 8,300 -1,525 Descending Chicago Center
Mon 07:29:28 AM 41.4894 -87.1192 309° West 276 318 6,700 -1,252 Descending Chicago Center
Mon 07:30:22 AM 41.5167 -87.2000 294° West 276 318 5,900 -1,000 Descending Chicago TRACON
Mon 07:31:22 AM 41.5500 -87.2833 298° West 267 307 4,800 -950 Descending Chicago TRACON
Mon 07:32:22 AM 41.6000 -87.3667 309° West 260 299 4,000 -750 Descending Chicago TRACON
Mon 07:33:22 AM 41.6500 -87.4333 315° West 256 295 3,300 -451 Descending Chicago TRACON
Mon 07:34:35 AM 41.6997 -87.5200 308° West 253 291 3,000 -358 Descending Chicago Center
Mon 07:35:36 AM 41.7450 -87.5831 314° West 247 284 2,500 -474 Descending Chicago Center
Mon 07:36:29 AM 41.7833 -87.6333 316° Northwest 207 238 2,100 -319 Descending Chicago TRACON
Mon 07:37:29 AM 41.8167 -87.6833 312° West 159 183 1,900 -400 Descending Chicago TRACON
Mon 07:38:29 AM 41.8167 -87.7167 270° West 118 136 1,300 -600 Descending Chicago TRACON

Login

Don't have an account? Register now (free) for customized features, flight alerts, and more!